createdAt,value
2022-10-05T03:00:58.999Z,10.50
2022-10-05T03:03:34.025Z,10.40
2022-10-05T03:06:12.893Z,10.40
2022-10-05T03:08:46.471Z,10.40
2022-10-05T03:11:25.314Z,10.30
2022-10-05T03:13:59.826Z,10.30
2022-10-05T03:16:40.614Z,10.30
2022-10-05T03:19:21.052Z,10.20
2022-10-05T03:21:56.756Z,10.20
2022-10-05T03:24:39.067Z,10.20
2022-10-05T03:27:20.611Z,10.20
2022-10-05T03:29:54.592Z,10.20
2022-10-05T03:32:31.117Z,10.20
2022-10-05T03:35:06.862Z,10.20
2022-10-05T03:37:43.938Z,10.20
2022-10-05T03:40:22.139Z,10.10
2022-10-05T03:42:58.920Z,10.10
2022-10-05T03:45:32.789Z,10.00
2022-10-05T03:48:08.537Z,10.00
2022-10-05T03:50:45.497Z,10.00
2022-10-05T03:53:19.147Z,10.00
2022-10-05T03:55:49.705Z,9.90
2022-10-05T03:58:21.595Z,9.90
2022-10-05T04:01:05.373Z,9.90
2022-10-05T04:03:39.675Z,9.90
2022-10-05T04:06:12.368Z,9.90
2022-10-05T04:08:47.797Z,9.90
2022-10-05T04:11:23.146Z,9.80
2022-10-05T04:13:54.513Z,9.80
2022-10-05T04:16:25.201Z,9.90
2022-10-05T04:18:59.348Z,9.90
2022-10-05T04:21:30.309Z,9.90
2022-10-05T04:24:03.540Z,9.90
2022-10-05T04:26:38.468Z,9.90
2022-10-05T04:29:16.347Z,9.90
2022-10-05T04:31:58.743Z,9.90
2022-10-05T04:34:49.806Z,9.90
2022-10-05T04:37:23.138Z,9.90
2022-10-05T04:40:00.909Z,9.90
2022-10-05T04:42:32.892Z,9.90
2022-10-05T04:45:14.639Z,9.90
2022-10-05T04:48:03.831Z,9.90
2022-10-05T04:50:45.959Z,9.80
2022-10-05T04:53:25.715Z,9.80
2022-10-05T04:55:58.960Z,9.70
2022-10-05T04:58:42.398Z,9.70
2022-10-05T05:01:26.372Z,9.70
2022-10-05T05:04:14.831Z,9.70
2022-10-05T05:06:51.140Z,9.70
2022-10-05T05:09:36.884Z,9.70
2022-10-05T05:12:16.801Z,9.60
2022-10-05T05:15:02.377Z,9.60
2022-10-05T05:17:54.730Z,9.60
2022-10-05T05:20:31.061Z,9.50
2022-10-05T05:23:10.296Z,9.50
2022-10-05T05:25:47.782Z,9.60
2022-10-05T05:28:27.917Z,9.50
2022-10-05T05:31:05.564Z,9.60
2022-10-05T05:33:42.704Z,9.60
2022-10-05T05:36:23.398Z,9.60
2022-10-05T05:39:05.303Z,9.60
2022-10-05T05:41:37.728Z,9.50
2022-10-05T05:44:19.300Z,9.60
2022-10-05T05:47:03.478Z,9.60
2022-10-05T05:49:44.301Z,9.60
2022-10-05T05:52:16.075Z,9.50
2022-10-05T05:54:52.780Z,9.60
2022-10-05T05:57:23.125Z,9.60
2022-10-05T06:00:00.550Z,9.50
2022-10-05T06:02:36.102Z,9.60
2022-10-05T06:05:21.951Z,9.60
2022-10-05T06:07:51.226Z,9.60
2022-10-05T06:10:26.401Z,9.60
2022-10-05T06:13:06.317Z,9.60
2022-10-05T06:15:39.188Z,9.60
2022-10-05T06:18:11.915Z,9.70
2022-10-05T06:20:41.711Z,9.70
2022-10-05T06:23:15.658Z,9.80
2022-10-05T06:25:58.460Z,9.90
2022-10-05T06:28:27.282Z,10.00
2022-10-05T06:31:03.900Z,10.10
2022-10-05T06:33:43.872Z,10.20
2022-10-05T06:36:22.522Z,10.30
2022-10-05T06:39:15.976Z,10.30
2022-10-05T06:41:57.369Z,10.50
2022-10-05T06:44:53.602Z,10.60
2022-10-05T06:47:47.145Z,10.70
2022-10-05T06:50:34.793Z,10.80
2022-10-05T06:53:32.073Z,10.90
2022-10-05T06:56:07.667Z,11.00
2022-10-05T06:58:48.192Z,11.10
2022-10-05T07:01:25.715Z,11.20
2022-10-05T07:04:07.561Z,11.40
2022-10-05T07:06:40.272Z,11.50
2022-10-05T07:09:30.067Z,11.70
2022-10-05T07:12:23.477Z,11.80
2022-10-05T07:15:07.229Z,12.00
2022-10-05T07:17:45.585Z,12.20
2022-10-05T07:20:20.129Z,12.30
2022-10-05T07:23:03.320Z,12.50
2022-10-05T07:25:40.955Z,12.60
2022-10-05T07:28:13.441Z,12.90
2022-10-05T07:30:55.884Z,13.10
2022-10-05T07:33:29.023Z,13.40
2022-10-05T07:36:21.841Z,13.80
2022-10-05T07:38:54.345Z,14.30
2022-10-05T07:41:31.229Z,15.50
2022-10-05T07:44:13.171Z,16.60
2022-10-05T07:46:53.341Z,17.80
2022-10-05T07:49:34.274Z,18.90
2022-10-05T07:52:05.138Z,19.90
2022-10-05T07:54:44.553Z,20.80
2022-10-05T07:57:21.281Z,21.40
2022-10-05T07:59:56.409Z,21.90
2022-10-05T08:02:28.790Z,22.40
2022-10-05T08:05:02.437Z,22.90
2022-10-05T08:07:31.368Z,23.50
2022-10-05T08:10:13.912Z,24.10
2022-10-05T08:12:51.021Z,24.80
2022-10-05T08:15:21.149Z,25.50
2022-10-05T08:17:55.079Z,26.30
2022-10-05T08:20:33.497Z,26.90
2022-10-05T08:23:06.145Z,27.70
2022-10-05T08:25:43.273Z,28.20
2022-10-05T08:28:17.415Z,28.70
2022-10-05T08:30:55.858Z,29.10
2022-10-05T08:33:26.561Z,29.30
2022-10-05T08:36:02.378Z,29.40
2022-10-05T08:38:32.704Z,29.70
2022-10-05T08:41:49.119Z,30.20
2022-10-05T08:44:49.040Z,30.60
2022-10-05T08:47:25.220Z,30.60
2022-10-05T08:50:25.423Z,30.90
2022-10-05T08:53:20.547Z,31.60
2022-10-05T08:56:03.061Z,32.00
2022-10-05T08:58:52.888Z,32.00
2022-10-05T09:01:27.252Z,32.50
2022-10-05T09:04:35.957Z,32.80
2022-10-05T09:07:15.350Z,32.80
2022-10-05T09:10:03.585Z,32.60
2022-10-05T09:12:52.190Z,32.10
2022-10-05T09:15:41.344Z,31.90
2022-10-05T09:18:45.420Z,32.00
2022-10-05T09:21:17.809Z,32.00
2022-10-05T09:23:56.163Z,31.70
2022-10-05T09:26:43.375Z,31.90
2022-10-05T09:29:35.739Z,31.40
2022-10-05T09:32:29.591Z,30.90
2022-10-05T09:35:13.488Z,30.00
2022-10-05T09:38:08.946Z,29.30
2022-10-05T09:41:11.668Z,28.80
2022-10-05T09:44:13.662Z,28.40
2022-10-05T09:46:56.976Z,27.80
2022-10-05T09:49:56.473Z,27.60
2022-10-05T09:52:50.403Z,27.60
2022-10-05T09:55:40.295Z,27.90
2022-10-05T09:58:49.469Z,27.20
2022-10-05T10:01:36.524Z,27.20
2022-10-05T10:04:30.341Z,26.90
2022-10-05T10:07:21.795Z,27.00
2022-10-05T10:10:12.644Z,27.30
2022-10-05T10:12:56.968Z,27.10
2022-10-05T10:16:06.056Z,27.30
2022-10-05T10:19:06.755Z,28.00
2022-10-05T10:22:16.310Z,28.00
2022-10-05T10:24:58.988Z,28.00
2022-10-05T10:27:38.987Z,27.60
2022-10-05T10:30:36.436Z,27.70
2022-10-05T10:33:37.273Z,27.20
2022-10-05T10:36:13.156Z,27.20
2022-10-05T10:38:49.525Z,27.40
2022-10-05T10:41:46.846Z,27.00
2022-10-05T10:44:47.233Z,27.20
2022-10-05T10:47:43.709Z,27.50
2022-10-05T10:50:38.784Z,27.50
2022-10-05T10:53:28.701Z,27.50
2022-10-05T10:56:17.706Z,27.40
2022-10-05T10:59:12.785Z,27.30
2022-10-05T11:01:47.281Z,27.20
2022-10-05T11:04:56.053Z,26.70
2022-10-05T11:07:39.433Z,27.00
2022-10-05T11:10:37.925Z,27.00
2022-10-05T11:13:39.525Z,27.30
2022-10-05T11:16:27.698Z,27.10
2022-10-05T11:19:15.319Z,27.00
2022-10-05T11:21:55.837Z,26.80
2022-10-05T11:24:51.600Z,27.20
2022-10-05T11:27:33.826Z,27.30
2022-10-05T11:30:42.748Z,27.30
2022-10-05T11:33:48.134Z,27.00
2022-10-05T11:36:54.692Z,26.80
2022-10-05T11:39:43.001Z,26.70
2022-10-05T11:42:36.426Z,26.60
2022-10-05T11:45:23.884Z,26.50
2022-10-05T11:48:13.224Z,26.40
2022-10-05T11:50:48.988Z,26.40
2022-10-05T11:53:23.206Z,26.30
2022-10-05T11:56:00.530Z,26.00
2022-10-05T11:58:33.883Z,26.00
2022-10-05T12:01:06.209Z,26.30
2022-10-05T12:03:42.521Z,26.70
2022-10-05T12:06:22.135Z,26.80
2022-10-05T12:09:00.234Z,26.70
2022-10-05T12:11:45.941Z,26.90
2022-10-05T12:14:25.574Z,27.10
2022-10-05T12:16:59.676Z,27.50
2022-10-05T12:19:33.839Z,27.60
2022-10-05T12:22:09.872Z,27.10
2022-10-05T12:25:01.712Z,27.30
2022-10-05T12:27:33.985Z,27.20
2022-10-05T12:30:06.359Z,27.00
2022-10-05T12:32:37.797Z,27.10
2022-10-05T12:35:11.497Z,27.20
2022-10-05T12:37:46.474Z,27.40
2022-10-05T12:40:23.247Z,27.40
2022-10-05T12:42:57.764Z,27.50
2022-10-05T12:45:37.837Z,27.20
2022-10-05T12:48:22.999Z,27.40
2022-10-05T12:50:54.153Z,27.70
2022-10-05T12:53:40.327Z,27.50
2022-10-05T12:56:14.866Z,27.40
2022-10-05T12:58:51.297Z,27.20
2022-10-05T13:01:34.207Z,26.90
2022-10-05T13:04:17.877Z,26.80
2022-10-05T13:06:53.744Z,26.60
2022-10-05T13:09:27.925Z,26.70
2022-10-05T13:11:59.157Z,26.80
2022-10-05T13:14:49.039Z,27.10
2022-10-05T13:17:26.191Z,26.90
2022-10-05T13:19:57.121Z,26.80
2022-10-05T13:22:34.543Z,26.70
2022-10-05T13:25:17.416Z,26.70
2022-10-05T13:27:51.290Z,26.80
2022-10-05T13:30:19.946Z,26.50
2022-10-05T13:32:57.335Z,26.70
2022-10-05T13:35:43.002Z,26.50
2022-10-05T13:38:29.560Z,26.20
2022-10-05T13:41:08.579Z,26.10
2022-10-05T13:43:44.528Z,26.10
2022-10-05T13:46:20.131Z,26.40
2022-10-05T13:49:03.435Z,26.30
2022-10-05T13:51:40.004Z,26.40
2022-10-05T13:54:16.846Z,26.60
2022-10-05T13:56:48.479Z,26.40
2022-10-05T13:59:24.148Z,26.20
2022-10-05T14:01:57.248Z,26.20
2022-10-05T14:04:29.983Z,26.30
2022-10-05T14:06:58.090Z,26.60
2022-10-05T14:09:29.868Z,26.40
2022-10-05T14:12:14.571Z,26.20
2022-10-05T14:14:47.670Z,26.20
2022-10-05T14:17:17.218Z,26.10
2022-10-05T14:19:48.775Z,26.20
2022-10-05T14:22:24.741Z,26.10
2022-10-05T14:24:54.765Z,26.00
2022-10-05T14:27:25.120Z,26.10
2022-10-05T14:29:58.239Z,26.40
2022-10-05T14:32:27.891Z,26.20
2022-10-05T14:35:05.131Z,26.30
2022-10-05T14:37:42.898Z,26.20
2022-10-05T14:40:25.995Z,26.30
2022-10-05T14:42:53.777Z,26.20
2022-10-05T14:45:23.705Z,26.10
2022-10-05T14:47:52.659Z,26.00
2022-10-05T14:50:26.197Z,26.00
2022-10-05T14:53:16.434Z,26.00
2022-10-05T14:55:55.726Z,26.00
2022-10-05T14:58:37.778Z,26.30
2022-10-05T15:01:15.048Z,26.00
2022-10-05T15:03:51.018Z,26.20
2022-10-05T15:06:28.077Z,25.90
2022-10-05T15:09:21.931Z,26.10
2022-10-05T15:11:51.163Z,25.70
2022-10-05T15:14:23.882Z,25.80
2022-10-05T15:16:53.798Z,25.70
2022-10-05T15:19:26.203Z,25.60
2022-10-05T15:22:25.133Z,25.50
2022-10-05T15:25:01.740Z,25.50
2022-10-05T15:27:37.748Z,25.50
2022-10-05T15:30:09.964Z,25.20
2022-10-05T15:32:49.878Z,25.40
2022-10-05T15:35:38.459Z,25.10
2022-10-05T15:38:20.790Z,24.90
2022-10-05T15:40:58.974Z,24.90
2022-10-05T15:43:35.909Z,24.80
2022-10-05T15:46:10.286Z,24.90
2022-10-05T15:48:48.357Z,24.70
2022-10-05T15:51:27.908Z,24.60
2022-10-05T15:54:21.732Z,24.80
2022-10-05T15:56:57.173Z,24.50
2022-10-05T15:59:33.988Z,24.60
2022-10-05T16:02:07.075Z,24.50
2022-10-05T16:04:43.744Z,24.60
2022-10-05T16:07:35.153Z,24.40
2022-10-05T16:10:12.450Z,24.20
2022-10-05T16:12:48.723Z,24.20
2022-10-05T16:15:26.219Z,24.10
2022-10-05T16:18:08.625Z,23.70
2022-10-05T16:20:46.389Z,23.80
2022-10-05T16:23:22.654Z,23.80
2022-10-05T16:26:03.773Z,23.50
2022-10-05T16:28:47.759Z,23.50
2022-10-05T16:31:18.995Z,23.50
2022-10-05T16:33:58.250Z,23.40
2022-10-05T16:36:40.369Z,23.30
2022-10-05T16:39:14.440Z,23.10
2022-10-05T16:41:50.670Z,22.90
2022-10-05T16:44:28.293Z,22.60
2022-10-05T16:47:01.234Z,22.50
2022-10-05T16:49:38.544Z,22.30
2022-10-05T16:52:10.377Z,22.20
2022-10-05T16:54:44.227Z,22.10
2022-10-05T16:57:22.616Z,22.00
2022-10-05T17:00:18.896Z,21.90
2022-10-05T17:02:58.565Z,21.70
2022-10-05T17:05:40.026Z,21.60
2022-10-05T17:12:26.695Z,21.40
2022-10-05T17:15:10.256Z,21.30
2022-10-05T17:17:57.730Z,21.30
2022-10-05T17:20:42.698Z,21.20
2022-10-05T17:23:31.172Z,21.20
2022-10-05T17:26:08.119Z,21.10
2022-10-05T17:28:44.766Z,21.00
2022-10-05T17:31:17.572Z,20.80
2022-10-05T17:34:10.456Z,20.70
2022-10-05T17:36:42.995Z,20.50
2022-10-05T17:39:14.624Z,20.40
2022-10-05T17:41:41.596Z,20.30
2022-10-05T17:44:26.231Z,20.20
2022-10-05T17:46:56.011Z,20.10
2022-10-05T17:49:46.979Z,20.00
2022-10-05T17:52:41.437Z,20.00
2022-10-05T17:55:29.023Z,19.90
2022-10-05T17:57:59.768Z,20.00
2022-10-05T18:01:04.299Z,19.90
2022-10-05T18:03:42.811Z,19.80
2022-10-05T18:06:37.965Z,19.80
2022-10-05T18:09:31.023Z,19.70
2022-10-05T18:12:39.662Z,19.70
2022-10-05T18:15:32.088Z,19.70
2022-10-05T18:18:55.838Z,19.60
2022-10-05T18:21:37.119Z,19.50
2022-10-05T18:24:25.671Z,19.50
2022-10-05T18:27:00.374Z,19.50
2022-10-05T18:30:05.690Z,19.40
2022-10-05T18:33:15.166Z,19.40
2022-10-05T18:35:56.041Z,19.30
2022-10-05T18:38:34.444Z,19.30
2022-10-05T18:41:07.177Z,19.30
2022-10-05T18:43:40.782Z,19.30
2022-10-05T18:46:18.316Z,19.30
2022-10-05T18:48:53.800Z,19.30
2022-10-05T18:51:30.868Z,19.30
2022-10-05T18:54:08.770Z,19.20
2022-10-05T18:56:40.938Z,19.20
2022-10-05T18:59:27.936Z,19.20
2022-10-05T19:02:05.560Z,19.10
2022-10-05T19:04:41.960Z,19.00
2022-10-05T19:07:21.668Z,19.00
2022-10-05T19:09:59.710Z,18.90
2022-10-05T19:12:41.642Z,18.90
2022-10-05T19:15:18.969Z,18.80
2022-10-05T19:18:11.198Z,18.80
2022-10-05T19:20:45.950Z,18.80
2022-10-05T19:23:30.251Z,18.70
2022-10-05T19:26:07.256Z,18.60
2022-10-05T19:28:41.353Z,18.60
2022-10-05T19:31:21.695Z,18.60
2022-10-05T19:34:16.277Z,18.50
2022-10-05T19:36:59.146Z,18.50
2022-10-05T19:39:37.261Z,18.50
2022-10-05T19:42:30.123Z,18.40
2022-10-05T19:45:07.059Z,18.40
2022-10-05T19:47:46.275Z,18.30
2022-10-05T19:50:25.404Z,18.30
2022-10-05T19:53:02.281Z,18.20
2022-10-05T19:55:36.299Z,18.20
2022-10-05T19:58:17.767Z,18.10
2022-10-05T20:00:53.502Z,18.10
2022-10-05T20:03:29.226Z,18.00
2022-10-05T20:05:58.246Z,18.00
2022-10-05T20:08:27.257Z,17.90
2022-10-05T20:11:15.985Z,17.80
2022-10-05T20:13:44.876Z,17.80
2022-10-05T20:16:51.564Z,17.80
2022-10-05T20:19:53.777Z,17.80
2022-10-05T20:22:26.468Z,17.70
2022-10-05T20:24:55.267Z,17.70
2022-10-05T20:27:43.701Z,17.60
2022-10-05T20:30:12.431Z,17.60
2022-10-05T20:32:39.292Z,17.60
2022-10-05T20:35:07.133Z,17.50
2022-10-05T20:37:34.237Z,17.50
2022-10-05T20:40:01.165Z,17.50
2022-10-05T20:42:28.056Z,17.40
2022-10-05T20:44:57.799Z,17.40
2022-10-05T20:47:25.400Z,17.40
2022-10-05T20:49:54.460Z,17.30
2022-10-05T20:52:22.795Z,17.30
2022-10-05T20:54:53.664Z,17.30
2022-10-05T20:57:21.269Z,17.20
2022-10-05T20:59:48.257Z,17.20
2022-10-05T21:02:16.768Z,17.20
2022-10-05T21:04:47.491Z,17.10
2022-10-05T21:07:15.392Z,17.10
2022-10-05T21:09:43.761Z,17.00
2022-10-05T21:12:11.164Z,17.00
2022-10-05T21:14:38.380Z,17.00
2022-10-05T21:17:06.698Z,16.90
2022-10-05T21:19:40.419Z,16.90
2022-10-05T21:22:08.984Z,16.90
2022-10-05T21:24:36.665Z,16.80
2022-10-05T21:27:04.439Z,16.80
2022-10-05T21:29:31.777Z,16.70
2022-10-05T21:31:58.798Z,16.70
2022-10-05T21:34:25.875Z,16.60
2022-10-05T21:36:54.141Z,16.60
2022-10-05T21:39:21.167Z,16.50
2022-10-05T21:41:49.788Z,16.50
2022-10-05T21:44:16.917Z,16.40
2022-10-05T21:46:43.963Z,16.40
2022-10-05T21:49:11.061Z,16.40
2022-10-05T21:51:39.079Z,16.40
2022-10-05T21:54:11.424Z,16.30
2022-10-05T21:56:41.612Z,16.30
2022-10-05T21:59:12.547Z,16.30
2022-10-05T22:01:39.473Z,16.30
2022-10-05T22:04:07.059Z,16.30
2022-10-05T22:06:35.205Z,16.20
2022-10-05T22:09:03.307Z,16.20
2022-10-05T22:11:32.014Z,16.20
2022-10-05T22:14:02.605Z,16.20
2022-10-05T22:16:31.822Z,16.10
2022-10-05T22:19:02.344Z,16.10
2022-10-05T22:21:30.032Z,16.00
2022-10-05T22:23:57.145Z,16.00
2022-10-05T22:26:24.554Z,16.00
2022-10-05T22:28:56.309Z,15.90
2022-10-05T22:31:23.535Z,15.90
2022-10-05T22:33:50.623Z,15.80
2022-10-05T22:36:18.158Z,15.80
2022-10-05T22:38:46.516Z,15.70
2022-10-05T22:41:15.349Z,15.70
2022-10-05T22:43:42.317Z,15.70
2022-10-05T22:46:12.773Z,15.70
2022-10-05T22:48:40.050Z,15.70
2022-10-05T22:51:07.644Z,15.70
2022-10-05T22:53:35.040Z,15.60
2022-10-05T22:56:07.366Z,15.60
2022-10-05T22:58:34.768Z,15.60
